TimeEST,TemperatureF,Dew PointF,Humidity,Sea Level PressureIn,VisibilityMPH,Wind Direction,Wind SpeedMPH,Gust SpeedMPH,PrecipitationIn,Events,Conditions,WindDirDegrees,DateUTC
12:15 AM,29.5,26.8,90,29.98,10.0,SW,4.6,-,N/A,,Clear,220,2013-12-16 05:15:00
12:35 AM,32.5,24.6,73,29.99,10.0,SW,4.6,-,N/A,,Clear,220,2013-12-16 05:35:00
12:55 AM,32.9,24.4,71,29.98,10.0,SW,5.8,-,N/A,,Clear,230,2013-12-16 05:55:00
1:15 AM,32.4,24.4,73,29.98,10.0,SW,4.6,-,N/A,,Clear,230,2013-12-16 06:15:00
1:35 AM,33.1,23.9,69,29.98,10.0,SW,3.5,-,N/A,,Clear,220,2013-12-16 06:35:00
1:55 AM,33.3,23.0,66,29.99,10.0,SW,3.5,-,N/A,,Clear,230,2013-12-16 06:55:00
2:17 AM,33.8,23.0,65,29.99,10.0,SW,4.6,-,N/A,,Clear,230,2013-12-16 07:17:00
2:37 AM,33.8,23.0,65,30.00,10.0,SW,5.8,-,N/A,,Clear,220,2013-12-16 07:37:00
2:57 AM,33.8,23.0,65,30.01,10.0,SW,4.6,-,N/A,,Clear,230,2013-12-16 07:57:00
3:18 AM,33.8,23.0,65,30.01,10.0,WSW,4.6,-,N/A,,Clear,240,2013-12-16 08:18:00
3:38 AM,33.8,23.0,65,30.01,10.0,SW,4.6,-,N/A,,Clear,230,2013-12-16 08:38:00
3:58 AM,32.0,23.0,69,30.02,10.0,SW,3.5,-,N/A,,Clear,220,2013-12-16 08:58:00
4:19 AM,32.0,24.8,75,30.02,10.0,SW,3.5,-,N/A,,Clear,220,2013-12-16 09:19:00
4:39 AM,30.2,23.0,75,30.03,10.0,SW,3.5,-,N/A,,Clear,220,2013-12-16 09:39:00
4:59 AM,30.2,23.0,75,30.03,10.0,SW,3.5,-,N/A,,Clear,220,2013-12-16 09:59:00
5:15 AM,31.3,23.9,74,30.03,10.0,SW,3.5,-,N/A,,Clear,220,2013-12-16 10:15:00
5:35 AM,31.6,23.7,73,30.04,10.0,SW,4.6,-,N/A,,Clear,220,2013-12-16 10:35:00
5:55 AM,31.1,24.3,76,30.04,10.0,Calm,Calm,-,N/A,,Clear,0,2013-12-16 10:55:00
6:15 AM,27.9,22.6,81,30.06,10.0,Calm,Calm,-,N/A,,Clear,0,2013-12-16 11:15:00
6:35 AM,29.7,24.6,81,30.08,10.0,Calm,Calm,-,N/A,,Clear,0,2013-12-16 11:35:00
6:55 AM,28.2,24.1,84,30.08,10.0,Calm,Calm,-,N/A,,Clear,0,2013-12-16 11:55:00
7:15 AM,27.5,24.4,88,30.08,10.0,Calm,Calm,-,N/A,,Clear,0,2013-12-16 12:15:00
7:35 AM,25.9,23.2,90,30.09,10.0,Calm,Calm,-,N/A,,Clear,0,2013-12-16 12:35:00
7:55 AM,27.9,25.5,91,30.10,10.0,Calm,Calm,-,N/A,,Clear,0,2013-12-16 12:55:00
8:15 AM,30.4,26.8,86,30.11,10.0,Calm,Calm,-,N/A,,Clear,0,2013-12-16 13:15:00
8:35 AM,31.6,28.0,87,30.12,10.0,Calm,Calm,-,N/A,,Clear,0,2013-12-16 13:35:00
8:55 AM,32.7,29.1,87,30.13,10.0,Calm,Calm,-,N/A,,Clear,0,2013-12-16 13:55:00
9:15 AM,34.3,29.3,82,30.14,10.0,Calm,Calm,-,N/A,,Clear,0,2013-12-16 14:15:00
9:35 AM,36.1,27.1,70,30.15,10.0,Calm,Calm,-,N/A,,Clear,0,2013-12-16 14:35:00
9:55 AM,36.5,27.5,70,30.15,10.0,Calm,Calm,-,N/A,,Clear,0,2013-12-16 14:55:00
10:15 AM,37.6,27.3,66,30.16,10.0,Calm,Calm,-,N/A,,Clear,0,2013-12-16 15:15:00
10:35 AM,38.3,24.8,58,30.16,10.0,Calm,Calm,-,N/A,,Clear,0,2013-12-16 15:35:00
10:55 AM,39.2,24.3,55,30.16,10.0,Calm,Calm,-,N/A,,Clear,0,2013-12-16 15:55:00
11:15 AM,39.7,23.9,53,30.14,10.0,Calm,Calm,-,N/A,,Clear,0,2013-12-16 16:15:00
11:35 AM,40.1,24.3,53,30.14,10.0,Calm,Calm,-,N/A,,Clear,0,2013-12-16 16:35:00
11:55 AM,41.0,25.3,54,30.13,10.0,Calm,Calm,-,N/A,,Clear,0,2013-12-16 16:55:00
12:15 PM,41.7,25.2,52,30.13,10.0,East,4.6,-,N/A,,Clear,100,2013-12-16 17:15:00
12:35 PM,41.5,24.3,50,30.12,10.0,Calm,Calm,-,N/A,,Clear,0,2013-12-16 17:35:00
12:55 PM,41.9,24.8,51,30.12,10.0,North,4.6,-,N/A,,Clear,10,2013-12-16 17:55:00
1:15 PM,41.9,24.4,50,30.11,10.0,Calm,Calm,-,N/A,,Clear,0,2013-12-16 18:15:00
1:35 PM,42.4,25.0,50,30.12,10.0,NNE,3.5,-,N/A,,Clear,20,2013-12-16 18:35:00
1:55 PM,41.9,24.6,50,30.12,10.0,Calm,Calm,-,N/A,,Clear,0,2013-12-16 18:55:00
2:15 PM,42.1,24.4,50,30.12,10.0,Calm,Calm,-,N/A,,Clear,0,2013-12-16 19:15:00
2:35 PM,42.8,25.2,50,30.12,10.0,Calm,Calm,-,N/A,,Clear,0,2013-12-16 19:35:00
2:55 PM,43.0,24.8,49,30.13,10.0,Calm,Calm,-,N/A,,Clear,0,2013-12-16 19:55:00
3:15 PM,43.2,24.8,48,30.13,10.0,Calm,Calm,-,N/A,,Clear,0,2013-12-16 20:15:00
3:35 PM,44.1,25.0,47,30.14,10.0,Calm,Calm,-,N/A,,Clear,0,2013-12-16 20:35:00
3:55 PM,43.0,24.8,49,30.14,10.0,Calm,Calm,-,N/A,,Clear,0,2013-12-16 20:55:00
4:15 PM,41.7,25.7,53,30.15,10.0,NE,4.6,-,N/A,,Clear,40,2013-12-16 21:15:00
4:35 PM,41.0,25.7,55,30.15,10.0,NE,3.5,-,N/A,,Clear,40,2013-12-16 21:35:00
4:55 PM,40.3,25.7,56,30.15,10.0,Calm,Calm,-,N/A,,Clear,0,2013-12-16 21:55:00
5:15 PM,39.4,26.2,59,30.16,10.0,NE,4.6,-,N/A,,Clear,50,2013-12-16 22:15:00
5:35 PM,38.5,27.0,63,30.16,10.0,East,8.1,-,N/A,,Clear,80,2013-12-16 22:35:00
5:55 PM,37.6,26.4,64,30.17,10.0,East,8.1,-,N/A,,Clear,80,2013-12-16 22:55:00
6:15 PM,36.1,26.4,68,30.17,10.0,East,5.8,-,N/A,,Clear,80,2013-12-16 23:15:00
6:35 PM,36.3,26.2,67,30.18,10.0,East,4.6,-,N/A,,Clear,80,2013-12-16 23:35:00
6:55 PM,35.8,26.2,68,30.18,10.0,East,4.6,-,N/A,,Clear,90,2013-12-16 23:55:00
7:15 PM,35.6,26.6,70,30.18,10.0,East,3.5,-,N/A,,Clear,80,2013-12-17 00:15:00
7:35 PM,36.0,26.4,68,30.19,10.0,Calm,Calm,-,N/A,,Clear,0,2013-12-17 00:35:00
7:55 PM,36.1,26.6,68,30.19,10.0,East,3.5,-,N/A,,Clear,80,2013-12-17 00:55:00
8:15 PM,36.0,27.5,71,30.18,10.0,East,3.5,-,N/A,,Scattered Clouds,80,2013-12-17 01:15:00
8:35 PM,36.1,27.5,71,30.18,10.0,ENE,4.6,-,N/A,,Scattered Clouds,60,2013-12-17 01:35:00
8:55 PM,36.5,27.1,69,30.18,10.0,ENE,3.5,-,N/A,,Clear,70,2013-12-17 01:55:00
9:15 PM,36.1,27.0,69,30.17,10.0,ENE,4.6,-,N/A,,Clear,60,2013-12-17 02:15:00
9:35 PM,35.6,27.1,71,30.17,10.0,ENE,4.6,-,N/A,,Scattered Clouds,70,2013-12-17 02:35:00
9:55 PM,33.8,27.1,77,30.18,10.0,Calm,Calm,-,N/A,,Scattered Clouds,0,2013-12-17 02:55:00
10:15 PM,34.2,26.8,74,30.18,10.0,Calm,Calm,-,N/A,,Clear,0,2013-12-17 03:15:00
10:35 PM,32.9,27.0,79,30.17,10.0,Calm,Calm,-,N/A,,Clear,0,2013-12-17 03:35:00
10:55 PM,31.8,26.6,81,30.17,10.0,Calm,Calm,-,N/A,,Clear,0,2013-12-17 03:55:00
11:15 PM,31.1,27.7,87,30.16,10.0,Calm,Calm,-,N/A,,Mostly Cloudy,0,2013-12-17 04:15:00
11:35 PM,31.1,27.7,87,30.15,10.0,Calm,Calm,-,N/A,,Overcast,0,2013-12-17 04:35:00
11:55 PM,31.1,28.2,89,30.14,10.0,Calm,Calm,-,N/A,,Overcast,0,2013-12-17 04:55:00